Siljan, Sweden

5:47 AM CEST on July 05, 2015 (GMT +0200)
Hemus | | Change Station
CLOSE
Current Station
Personal Weather Station
Location: Mora, DALARNA
Elevation: 653 ft
Nearby Weather Stations

Elev 653 ft 61.01 °N, 14.51 °E | Updated 2 minutes ago

Mostly Cloudy
Mostly Cloudy
62.2 °F
Feels Like 62.2 °F
N
0.0
Wind Variable Wind from NW
Gusts 3.8 mph

Today
High -- | Low -- °F
--% Chance of Precip.
Yesterday
High -- | Low -- °F
Precip. -- in
3:37 AM 10:34 PM
Waning Gibbous, 88% visible
Pressure 30.09 in
Visibility 6.2 miles
Clouds Few 2300 ft
Mostly Cloudy 7600 ft
Dew Point 46 °F
Humidity 55%
Rainfall 0.00 in
Snow Depth Not available.
UV 0.0 out of 12
Pollen Not available.
Air Quality Not available.
Flu Activity Not available.
METAR ESSD 050320Z AUTO 12002KT 9999 FEW023/// BKN076/// 17/14 Q1019

More Conditions Fewer Conditions

Pressure 30.09 in
Visibility 6.2 miles
Clouds Few 2300 ft
Mostly Cloudy 7600 ft
Dew Point 46 °F
Humidity 55%
Rainfall 0.00 in
Snow Depth Not available.
UV 0.0 out of 12
Pollen Not available.
Air Quality Not available.
Flu Activity Not available.
METAR ESSD 050320Z AUTO 12002KT 9999 FEW023/// BKN076/// 17/14 Q1019

More Conditions Fewer Conditions

10-Day Weather Forecast

×

Almanac

Astronomy

Jul. 05, 2015 Rise Set
Actual Time
Civil Twilight
Nautical Twilight
Astronomical Twilight
Moon
Length of Visible Light
Length of Day
Tomorrow will be .
, % of the Moon is Illuminated

Today's Extremes

Country Highs Country Lows

Community

WunderPhotos

Upload Photos

1,835,193 photos uploaded!

WunderBlogs® & News

Nearby

Air Quality

  Air Quality AQ Index Pollutant
Not available.

Snow Depth

Station Depth Elevation

Earthquake Activity

City Distance Mag. Time & Date
Minimum magnitude displayed is 2.5.

Coastal Water Temperatures

Place Temperature

Stations

Nearby Weather Stations

Station Location Temp. Windchill Dew Point Humidity Wind Precip. Elev Updated Type